Latest Coastal Weather Observations for Brisbane Airport

IDQ60701

Issued at 4:12 pm EST Wednesday 24 May 2017 (issued every 10 minutes, with the page automatically refreshed every 10 minutes)

About coastal observations | Map of coastal stations | Coastal observations for QLD | Marine services | Other Formats
Station Details ID: 040842 Name: BRISBANE AERO Lat: -27.39 Lon: 153.13 Height: 4.51 m
Data from the previous 72 hours. | See also: Recent months at Brisbane Airport
Date/Time
EST
Temp
°C
Wind Pressure Rain since
9am
mm
Weather Cloud Vis
km
Sea
Height
m
Swell
Dir  Spd
kts
Gust
kts
hPa Trend Height
m
Period
s
Dir
24/04:00pm 21.9 NNE 11 14 1015.1 - 0.0 - Mostly clear 10 - - - -
24/03:30pm 22.8 NNE 10 14 1015.1 - 0.0 - Mostly clear 10 - - - -
24/03:00pm 23.7 N 8 10 1015.1 F 0.0 Haze Mostly clear 20 - - - -
24/02:30pm 23.8 NNE 8 10 1015.4 - 0.0 - Mostly clear 10 - - - -
24/02:00pm 23.9 NNE 8 9 1015.6 - 0.0 - Mostly clear 10 - - - -
24/01:30pm 23.9 NNE 7 9 1015.8 - 0.0 - Mostly clear 10 - - - -
24/01:00pm 24.9 NNE 8 9 1016.4 - 0.0 - Mostly clear 10 - - - -
24/12:30pm 23.8 SSW 5 10 1016.9 - 0.0 - Mostly clear 10 - - - -
24/12:00pm 23.5 S 6 8 1017.6 F 0.0 Haze Mostly clear 18 - - - -
24/11:30am 22.9 WSW 6 9 1018.0 - 0.0 - Mostly clear 10 - - - -
24/11:00am 22.3 W 3 7 1018.6 - 0.0 - - 10 - - - -
24/10:30am 21.2 SW 5 8 1019.2 - 0.0 - - 10 - - - -
24/10:00am 20.4 SSW 7 11 1019.7 - 0.0 - Mostly clear 10 - - - -
24/09:30am 19.4 SSW 8 10 1019.8 - 0.0 - Mostly clear 10 - - - -
24/09:00am 18.3 SSW 7 9 1020.1 F 0.2 Recent fog Partly cloudy 8 - - - -
24/08:50am 17.8 SW 6 7 1020.0 - 0.2 - Partly cloudy 8 - - - -
24/08:30am 16.9 SSW 6 8 1019.8 - 0.0 Fog Mostly cloudy 4 - - - -
24/08:00am 16.8 SW 7 9 1019.7 - 0.0 - Cloudy 2 - - - -
24/07:30am 16.7 SW 9 10 1019.7 - 0.0 Fog Cloudy 2 - - - -
24/07:21am 16.5 SW 9 10 1019.5 - 0.0 Fog Cloudy 0.8 - - - -
24/07:00am 16.4 SW 7 9 1019.4 - 0.0 - Cloudy 0.3 - - - -
24/06:30am 16.3 SW 7 9 1019.2 - 0.0 Fog Cloudy 0.2 - - - -
24/06:00am 16.2 SSW 5 7 1019.1 F 0.0 Fog Fog 0.3 - - - -
24/05:30am 16.4 SSW 7 9 1018.9 - 0.0 Fog Cloudy 0.3 - - - -
24/05:00am 16.3 SSW 6 8 1018.6 - 0.0 - Cloudy 0.2 - - - -
24/04:30am 16.2 SSW 7 9 1018.4 - 0.0 Fog Partly cloudy 0.2 - - - -
24/04:11am 15.4 SSW 4 5 1018.4 - 0.0 Fog Mostly cloudy 0.5 - - - -
24/04:00am 15.8 SSW 4 5 1018.4 - 0.0 - Mostly clear 10 - - - -
24/03:44am 15.4 SSW 5 6 1018.4 - 0.0 Shallow fog Mostly clear 10 - - - -
24/03:30am 15.4 SSW 5 6 1018.3 - 0.0 Shallow fog Mostly clear 10 - - - -
24/03:00am 15.7 SSW 5 5 1018.5 F 0.0 Shallow fog Mostly clear 15 - - - -
24/02:30am 15.5 CALM 0 0 1018.6 - 0.0 Shallow fog Mostly clear 10 - - - -
24/02:00am 16.3 W 1 3 1018.8 - 0.0 - Mostly clear 10 - - - -
24/01:30am 16.1 WSW 2 5 1019.1 - 0.0 Shallow fog Mostly clear 2 - - - -
24/01:00am 16.6 SSW 4 5 1019.2 - 0.0 - Mostly clear 10 - - - -
24/12:30am 16.4 SW 4 5 1019.7 - 0.0 Shallow fog Mostly clear 2 - - - -
24/12:00am 17.0 SSW 4 5 1020.2 R 0.0 Shallow fog Mostly clear 30 - - - -
 
Date/Time
EST
Temp
°C
Wind Pressure Rain since
9am
mm
Weather Cloud Vis
km
Sea
Height
m
Swell
Dir  Spd
kts
Gust
kts
hPa Trend Height
m
Period
s
Dir
23/11:30pm 17.5 SSW 4 4 1020.5 - 0.0 Shallow fog Mostly clear 10 - - - -
23/11:00pm 17.2 SW 3 5 1020.5 - 0.0 - Mostly clear 10 - - - -
23/10:30pm 17.1 SSW 4 5 1020.6 - 0.0 Shallow fog Mostly clear 10 - - - -
23/10:00pm 17.7 SSW 3 4 1020.5 - 0.0 - Mostly clear 10 - - - -
23/09:42pm 18.5 SSW 4 4 1020.6 - 0.0 Shallow fog Mostly clear 10 - - - -
23/09:30pm 18.0 SSW 1 4 1020.6 - 0.0 - Mostly clear 10 - - - -
23/09:00pm 18.5 SE 1 5 1020.5 R 0.0 Fine Mostly clear 30 - - - -
23/08:30pm 19.3 ESE 3 4 1020.3 - 0.0 - Mostly clear 10 - - - -
23/08:00pm 19.4 ESE 4 4 1020.2 - 0.0 - Mostly clear 10 - - - -
23/07:30pm 19.9 E 3 4 1020.0 - 0.0 - Mostly clear 10 - - - -
23/07:00pm 19.9 CALM 0 0 1020.0 - 0.0 - Mostly clear 10 - - - -
23/06:30pm 20.6 E 4 6 1019.8 - 0.0 - Mostly clear 10 - - - -
23/06:00pm 20.8 ENE 5 6 1019.3 F 0.0 Fine Mostly clear 30 - - - -
23/05:30pm 21.2 ENE 6 8 1019.1 - 0.0 - Mostly clear 10 - - - -
23/05:00pm 21.4 ENE 6 8 1019.0 - 0.0 - Mostly clear 10 - - - -
23/04:30pm 21.7 NE 7 10 1018.8 - 0.0 - Mostly clear 10 - - - -
23/04:00pm 22.6 NNE 8 9 1018.5 - 0.0 - Mostly clear 10 - - - -
23/03:30pm 23.6 NNE 7 9 1018.3 - 0.0 - Mostly clear 10 - - - -
23/03:00pm 23.9 NNE 8 11 1018.3 F 0.0 Fine Mostly clear 30 - - - -
23/02:30pm 23.7 ENE 7 9 1018.4 - 0.0 - Mostly clear 10 - - - -
23/02:00pm 23.8 NE 7 10 1018.6 - 0.0 - Mostly clear 10 - - - -
23/01:30pm 23.6 ENE 5 8 1018.7 - 0.0 - Mostly clear 10 - - - -
23/01:00pm 23.8 ENE 7 13 1019.2 - 0.0 - Mostly clear 10 - - - -
23/12:30pm 23.6 E 5 8 1019.7 - 0.0 - Mostly clear 10 - - - -
23/12:00pm 23.5 ESE 6 8 1020.2 F 0.0 Fine Mostly clear 30 - - - -
23/11:30am 23.7 ESE 6 8 1020.7 - 0.0 - Mostly clear 10 - - - -
23/11:00am 23.4 S 6 9 1021.1 - 0.0 - Mostly clear 10 - - - -
23/10:30am 22.8 S 7 10 1021.7 - 0.0 - Mostly clear 10 - - - -
23/10:00am 21.8 SSW 7 9 1022.1 - 0.0 - Mostly clear 10 - - - -
23/09:30am 20.9 SSW 8 10 1022.3 - 0.0 - Mostly clear 10 - - - -
23/09:00am 19.9 SSW 9 13 1022.3 R 0.2 Fine Mostly clear 30 - - - -
23/08:30am 19.0 SSW 10 12 1022.3 - 0.2 - Mostly clear 10 - - - -
23/08:00am 18.0 SSW 9 12 1022.2 - 0.2 - - 10 - - - -
23/07:30am 17.2 SSW 8 11 1021.9 - 0.2 - - 10 - - - -
23/07:00am 16.8 SSW 7 8 1021.6 - 0.2 - - 10 - - - -
23/06:30am 16.7 SSW 7 9 1021.2 - 0.2 - Mostly clear 10 - - - -
23/06:00am 16.7 SSW 6 7 1020.9 F 0.2 Fine Clear 30 - - - -
23/05:30am 16.6 SSW 8 10 1020.5 - 0.2 - - 10 - - - -
23/05:00am 16.2 SSW 8 9 1020.4 - 0.2 - - 10 - - - -
23/04:30am 16.9 SSW 7 8 1020.2 - 0.2 - - 10 - - - -
23/04:00am 16.2 SSW 7 9 1020.3 - 0.2 - - 10 - - - -
23/03:30am 17.0 SSW 6 8 1020.3 - 0.2 - - 10 - - - -
23/03:00am 16.8 SSW 7 8 1020.3 F 0.2 Fine Clear 20 - - - -
23/02:30am 16.8 SSW 7 8 1020.4 - 0.2 - - 10 - - - -
23/02:00am 16.5 SSW 6 8 1020.4 - 0.2 - - 10 - - - -
23/01:30am 16.7 SSW 5 6 1020.6 - 0.2 - - 10 - - - -
23/01:00am 17.0 SSW 4 5 1020.6 - 0.2 - Mostly clear 10 - - - -
23/12:30am 18.1 S 3 5 1020.8 - 0.2 - Mostly clear 10 - - - -
23/12:00am 18.6 S 4 4 1021.2 F 0.2 Fine Clear 25 - - - -
 
Date/Time
EST
Temp
°C
Wind Pressure Rain since
9am
mm
Weather Cloud Vis
km
Sea
Height
m
Swell
Dir  Spd
kts
Gust
kts
hPa Trend Height
m
Period
s
Dir
22/11:30pm 18.9 SSE 4 5 1021.5 - 0.2 - - 10 - - - -
22/11:00pm 18.9 SSE 4 6 1021.7 - 0.2 - Mostly clear 10 - - - -
22/10:30pm 18.9 S 3 5 1021.7 - 0.2 - Mostly clear 10 - - - -
22/10:00pm 18.9 SSE 4 5 1021.7 - 0.2 - Mostly clear 10 - - - -
22/09:30pm 19.3 SSE 4 5 1021.7 - 0.2 - Mostly clear 10 - - - -
22/09:00pm 19.2 S 2 4 1021.7 R 0.2 Fine Mostly clear 30 - - - -
22/08:30pm 20.1 SSE 4 5 1021.6 - 0.2 - Mostly clear 10 - - - -
22/08:00pm 20.5 SE 4 6 1021.3 - 0.2 - - 10 - - - -
22/07:30pm 20.5 SE 5 6 1021.0 - 0.2 - - 10 - - - -
22/07:00pm 20.6 ESE 4 7 1020.8 - 0.2 - - 10 - - - -
22/06:30pm 20.7 SE 4 6 1020.6 - 0.2 - Mostly clear 10 - - - -
22/06:00pm 21.0 SE 5 8 1020.3 F 0.2 Fine Mostly clear 30 - - - -
22/05:30pm 21.2 ESE 6 9 1020.2 - 0.2 - Mostly clear 10 - - - -
22/05:00pm 21.4 ESE 7 11 1020.0 - 0.0 - Mostly clear 10 - - - -
22/04:30pm 22.0 ESE 7 11 1019.8 - 0.0 - Mostly clear 10 - - - -
22/04:00pm 22.4 ESE 7 12 1019.5 - 0.0 - Mostly clear 10 - - - -
22/03:30pm 23.0 ESE 8 12 1019.5 - 0.0 - Mostly clear 10 - - - -
22/03:00pm 23.2 ESE 8 13 1019.4 F 0.0 Fine Mostly clear 30 - - - -
22/02:30pm 23.6 ESE 10 15 1019.4 - 0.0 - Mostly clear 10 - - - -
22/02:00pm 23.7 ESE 10 15 1019.6 - 0.0 - Mostly clear 10 - - - -
22/01:30pm 24.1 ESE 9 14 1019.6 - 0.0 - Mostly clear 10 - - - -
22/01:00pm 24.0 ESE 8 12 1019.9 - 0.0 - Mostly clear 10 - - - -
22/12:30pm 24.0 ESE 8 14 1020.2 - 0.0 - Partly cloudy 10 - - - -
22/12:00pm 23.8 ESE 8 12 1020.4 S 0.0 Fine Partly cloudy 30 - - - -
22/11:30am 23.8 E 7 11 1020.9 - 0.0 - Partly cloudy 10 - - - -
22/11:00am 23.6 ESE 6 10 1021.3 - 0.0 - Mostly clear 10 - - - -
22/10:30am 23.0 SSE 4 8 1021.7 - 0.0 - Mostly clear 10 - - - -
22/10:00am 22.2 S 7 10 1022.0 - 0.0 - Mostly clear 10 - - - -
22/09:30am 20.9 SSW 8 10 1022.0 - 0.0 - Mostly clear 10 - - - -
22/09:00am 19.3 SSW 9 11 1022.2 R 0.0 Fine Mostly clear 25 - - - -
22/08:30am 18.5 SSW 9 10 1022.0 - 0.0 - Mostly clear 10 - - - -
22/08:00am 17.9 SSW 9 12 1021.9 - 0.0 - Mostly clear 10 - - - -
22/07:30am 17.0 SW 8 10 1021.6 - 0.0 - Mostly clear 10 - - - -
22/07:00am 16.3 SSW 9 12 1021.2 - 0.0 - Partly cloudy 9 - - - -
22/06:42am 16.0 SSW 8 10 1021.0 - 0.0 - Mostly clear 9 - - - -
22/06:30am 15.7 SSW 7 9 1020.9 - 0.0 Mist Mostly clear 5 - - - -
22/06:24am 16.1 SSW 7 9 1020.8 - 0.0 Mist Mostly clear 5 - - - -
22/06:19am 16.2 SSW 7 9 1020.7 - 0.0 Mist Partly cloudy 3 - - - -
22/06:00am 16.1 SSW 8 10 1020.6 R 0.0 Mist Mostly cloudy 1 - - - -
22/05:51am 16.0 SSW 9 10 1020.5 - 0.0 Mist Mostly cloudy 1 - - - -
22/05:47am 16.0 SSW 9 10 1020.4 - 0.0 Mist Mostly cloudy 5 - - - -
22/05:30am 15.9 SSW 8 10 1020.2 - 0.0 - Mostly clear 10 - - - -
22/05:18am 16.0 SSW 9 11 1020.1 - 0.0 - Partly cloudy 10 - - - -
22/05:14am 15.9 SSW 9 11 1020.1 - 0.0 - Partly cloudy 9 - - - -
22/05:00am 15.9 SSW 7 10 1020.0 - 0.0 - Partly cloudy 5 - - - -
22/04:30am 15.8 SSW 7 8 1019.8 - 0.0 Mist Partly cloudy 4 - - - -
22/04:13am 16.1 SSW 7 10 1019.7 - 0.0 Mist Partly cloudy 2 - - - -
22/04:00am 15.4 SSW 6 8 1019.6 - 0.0 - Mostly clear 10 - - - -
22/03:30am 16.0 SSW 7 8 1019.6 - 0.0 - Mostly clear 10 - - - -
22/03:00am 16.2 SSW 6 7 1019.6 R 0.0 Fine Mostly clear 25 - - - -
22/02:30am 16.5 SSW 6 7 1019.7 - 0.0 - Mostly clear 10 - - - -
22/02:00am 17.2 SSW 6 7 1019.6 - 0.0 - Mostly clear 10 - - - -
22/01:30am 16.8 SSW 5 6 1019.8 - 0.0 Shallow fog Mostly clear 10 - - - -
22/01:00am 16.6 SSW 4 6 1019.9 - 0.0 - Mostly clear 10 - - - -
22/12:30am 17.2 SSW 5 6 1020.0 - 0.0 Shallow fog Mostly clear 10 - - - -
22/12:00am 17.1 SSW 3 4 1020.1 R 0.0 Shallow fog Clear 25 - - - -
 
Date/Time
EST
Temp
°C
Wind Pressure Rain since
9am
mm
Weather Cloud Vis
km
Sea
Height
m
Swell
Dir  Spd
kts
Gust
kts
hPa Trend Height
m
Period
s
Dir
21/11:30pm 17.3 S 4 5 1020.2 - 0.0 Shallow fog - 10 - - - -
21/11:00pm 16.9 SSW 5 5 1020.3 - 0.0 - - 10 - - - -
21/10:30pm 17.8 SSW 5 7 1020.2 - 0.0 - - 10 - - - -
21/10:00pm 17.6 S 3 4 1020.5 - 0.0 - Mostly clear 10 - - - -
21/09:30pm 18.2 S 4 5 1020.3 - 0.0 - Mostly clear 10 - - - -
21/09:00pm 19.1 SE 3 4 1020.2 R 0.0 Fine Mostly clear 25 - - - -
21/08:30pm 19.5 SSE 3 4 1020.2 - 0.0 - Partly cloudy 10 - - - -
21/08:00pm 20.0 SE 1 4 1020.1 - 0.0 - Mostly clear 10 - - - -
21/07:30pm 20.2 SE 3 5 1019.9 - 0.0 - Mostly clear 10 - - - -
21/07:00pm 20.4 SE 3 4 1019.8 - 0.0 - Mostly clear 10 - - - -
21/06:30pm 20.5 ESE 4 5 1019.5 - 0.0 - Mostly clear 10 - - - -
21/06:00pm 20.6 ESE 4 6 1018.9 S 0.0 Smoke Mostly clear 25 - - - -
21/05:30pm 20.8 ESE 4 6 1018.5 - 0.0 - Mostly clear 10 - - - -
21/05:00pm 21.5 ESE 5 7 1018.2 - 0.0 - Mostly clear 10 - - - -
21/04:30pm 22.2 SE 5 8 1017.8 - 0.0 - Mostly clear 10 - - - -

Other Formats:

Comma delimited format used in spreadsheet applications
http://www.bom.gov.au/fwo/IDQ60701/IDQ60701.94578.axf

JavaScript Object Notation format (JSON) in row-major order
http://www.bom.gov.au/fwo/IDQ60701/IDQ60701.94578.json